sensor_id;sensor_type;location;lat;lon;timestamp;temperature;humidity
19805;DHT22;10062;51.052;13.756;2024-03-22T00:00:36;10.00;1.00
19805;DHT22;10062;51.052;13.756;2024-03-22T00:03:07;10.00;1.00
19805;DHT22;10062;51.052;13.756;2024-03-22T00:05:39;10.10;1.00
19805;DHT22;10062;51.052;13.756;2024-03-22T00:08:09;10.00;1.00
19805;DHT22;10062;51.052;13.756;2024-03-22T00:10:42;10.10;1.00
19805;DHT22;10062;51.052;13.756;2024-03-22T00:13:13;10.10;1.00
19805;DHT22;10062;51.052;13.756;2024-03-22T00:15:44;10.10;1.00
19805;DHT22;10062;51.052;13.756;2024-03-22T00:18:15;9.90;1.00
19805;DHT22;10062;51.052;13.756;2024-03-22T00:20:47;10.00;1.00
19805;DHT22;10062;51.052;13.756;2024-03-22T00:23:18;10.00;1.00
19805;DHT22;10062;51.052;13.756;2024-03-22T00:25:51;10.00;1.00
19805;DHT22;10062;51.052;13.756;2024-03-22T00:28:21;10.00;1.00
19805;DHT22;10062;51.052;13.756;2024-03-22T00:30:53;9.90;1.00
19805;DHT22;10062;51.052;13.756;2024-03-22T00:33:24;10.00;1.00
19805;DHT22;10062;51.052;13.756;2024-03-22T00:35:55;10.00;1.00
19805;DHT22;10062;51.052;13.756;2024-03-22T00:38:26;9.80;1.00
19805;DHT22;10062;51.052;13.756;2024-03-22T00:40:59;9.90;1.00
19805;DHT22;10062;51.052;13.756;2024-03-22T00:43:30;9.90;1.00
19805;DHT22;10062;51.052;13.756;2024-03-22T00:46:02;9.90;1.00
19805;DHT22;10062;51.052;13.756;2024-03-22T00:48:33;9.90;1.00
19805;DHT22;10062;51.052;13.756;2024-03-22T00:51:05;9.90;1.00
19805;DHT22;10062;51.052;13.756;2024-03-22T00:53:37;9.90;1.00
19805;DHT22;10062;51.052;13.756;2024-03-22T00:56:09;9.80;1.00
19805;DHT22;10062;51.052;13.756;2024-03-22T00:58:41;9.80;1.00
19805;DHT22;10062;51.052;13.756;2024-03-22T01:01:11;9.80;1.00
19805;DHT22;10062;51.052;13.756;2024-03-22T01:03:43;9.80;1.00
19805;DHT22;10062;51.052;13.756;2024-03-22T01:06:14;10.00;1.00
19805;DHT22;10062;51.052;13.756;2024-03-22T01:08:46;9.90;1.00
19805;DHT22;10062;51.052;13.756;2024-03-22T01:11:18;9.90;1.00
19805;DHT22;10062;51.052;13.756;2024-03-22T01:13:50;10.00;1.00
19805;DHT22;10062;51.052;13.756;2024-03-22T01:16:21;10.00;1.00
19805;DHT22;10062;51.052;13.756;2024-03-22T01:18:52;10.00;1.00
19805;DHT22;10062;51.052;13.756;2024-03-22T01:21:23;10.10;1.00
19805;DHT22;10062;51.052;13.756;2024-03-22T01:23:55;10.00;1.00
19805;DHT22;10062;51.052;13.756;2024-03-22T01:26:27;9.90;1.00
19805;DHT22;10062;51.052;13.756;2024-03-22T01:28:59;9.90;1.00
19805;DHT22;10062;51.052;13.756;2024-03-22T01:31:29;9.80;1.00
19805;DHT22;10062;51.052;13.756;2024-03-22T01:34:01;9.80;1.00
19805;DHT22;10062;51.052;13.756;2024-03-22T01:36:32;9.80;1.00
19805;DHT22;10062;51.052;13.756;2024-03-22T01:39:03;9.80;1.00
19805;DHT22;10062;51.052;13.756;2024-03-22T01:41:35;9.70;1.00
19805;DHT22;10062;51.052;13.756;2024-03-22T01:44:07;9.70;1.00
19805;DHT22;10062;51.052;13.756;2024-03-22T01:46:38;9.50;1.00
19805;DHT22;10062;51.052;13.756;2024-03-22T01:49:11;9.50;1.00
19805;DHT22;10062;51.052;13.756;2024-03-22T01:51:43;9.50;1.00
19805;DHT22;10062;51.052;13.756;2024-03-22T01:54:16;9.50;1.00
19805;DHT22;10062;51.052;13.756;2024-03-22T01:56:48;9.60;1.00
19805;DHT22;10062;51.052;13.756;2024-03-22T01:59:20;9.50;1.00
19805;DHT22;10062;51.052;13.756;2024-03-22T02:01:52;9.70;1.00
19805;DHT22;10062;51.052;13.756;2024-03-22T02:04:23;9.70;1.00
19805;DHT22;10062;51.052;13.756;2024-03-22T02:06:54;9.60;1.00
19805;DHT22;10062;51.052;13.756;2024-03-22T02:09:26;9.50;1.00
19805;DHT22;10062;51.052;13.756;2024-03-22T02:11:58;9.50;1.00
19805;DHT22;10062;51.052;13.756;2024-03-22T02:14:30;9.50;1.00
19805;DHT22;10062;51.052;13.756;2024-03-22T02:17:00;9.50;1.00
19805;DHT22;10062;51.052;13.756;2024-03-22T02:19:32;9.40;1.00
19805;DHT22;10062;51.052;13.756;2024-03-22T02:22:03;9.40;1.00
19805;DHT22;10062;51.052;13.756;2024-03-22T02:24:36;9.40;1.00
19805;DHT22;10062;51.052;13.756;2024-03-22T02:27:07;9.50;1.00
19805;DHT22;10062;51.052;13.756;2024-03-22T02:29:38;9.50;1.00
19805;DHT22;10062;51.052;13.756;2024-03-22T02:32:09;9.50;1.00
19805;DHT22;10062;51.052;13.756;2024-03-22T02:34:41;9.50;1.00
19805;DHT22;10062;51.052;13.756;2024-03-22T02:37:12;9.50;1.00
19805;DHT22;10062;51.052;13.756;2024-03-22T02:39:44;9.40;1.00
19805;DHT22;10062;51.052;13.756;2024-03-22T02:42:15;9.30;1.00
19805;DHT22;10062;51.052;13.756;2024-03-22T02:44:47;9.40;1.00
19805;DHT22;10062;51.052;13.756;2024-03-22T02:47:17;9.60;1.00
19805;DHT22;10062;51.052;13.756;2024-03-22T02:49:49;11.30;1.00
19805;DHT22;10062;51.052;13.756;2024-03-22T02:52:20;9.60;1.00
19805;DHT22;10062;51.052;13.756;2024-03-22T02:54:53;9.50;1.00
19805;DHT22;10062;51.052;13.756;2024-03-22T02:57:24;9.60;1.00
19805;DHT22;10062;51.052;13.756;2024-03-22T02:59:55;9.50;1.00
19805;DHT22;10062;51.052;13.756;2024-03-22T03:02:26;9.40;1.00
19805;DHT22;10062;51.052;13.756;2024-03-22T03:04:58;9.40;1.00
19805;DHT22;10062;51.052;13.756;2024-03-22T03:07:28;9.20;1.00
19805;DHT22;10062;51.052;13.756;2024-03-22T03:10:01;9.30;1.00
19805;DHT22;10062;51.052;13.756;2024-03-22T03:12:32;9.30;1.00
19805;DHT22;10062;51.052;13.756;2024-03-22T03:15:04;9.20;1.00
19805;DHT22;10062;51.052;13.756;2024-03-22T03:17:35;9.30;1.00
19805;DHT22;10062;51.052;13.756;2024-03-22T03:20:07;9.20;1.00
19805;DHT22;10062;51.052;13.756;2024-03-22T03:22:40;9.20;1.00
19805;DHT22;10062;51.052;13.756;2024-03-22T03:25:13;9.40;1.00
19805;DHT22;10062;51.052;13.756;2024-03-22T03:27:44;9.30;1.00
19805;DHT22;10062;51.052;13.756;2024-03-22T03:30:16;9.20;1.00
19805;DHT22;10062;51.052;13.756;2024-03-22T03:32:46;9.20;1.00
19805;DHT22;10062;51.052;13.756;2024-03-22T03:35:18;9.10;1.00
19805;DHT22;10062;51.052;13.756;2024-03-22T03:37:49;9.20;1.00
19805;DHT22;10062;51.052;13.756;2024-03-22T03:40:22;9.20;1.00
19805;DHT22;10062;51.052;13.756;2024-03-22T03:42:55;9.20;1.00
19805;DHT22;10062;51.052;13.756;2024-03-22T03:45:26;9.30;1.00
19805;DHT22;10062;51.052;13.756;2024-03-22T03:47:57;9.30;1.00
19805;DHT22;10062;51.052;13.756;2024-03-22T03:50:29;9.40;1.00
19805;DHT22;10062;51.052;13.756;2024-03-22T03:52:59;9.40;1.00
19805;DHT22;10062;51.052;13.756;2024-03-22T03:55:32;9.40;1.00
19805;DHT22;10062;51.052;13.756;2024-03-22T03:58:04;9.40;1.00
19805;DHT22;10062;51.052;13.756;2024-03-22T04:00:35;9.30;1.00
19805;DHT22;10062;51.052;13.756;2024-03-22T04:03:06;9.30;1.00
19805;DHT22;10062;51.052;13.756;2024-03-22T04:05:37;9.30;1.00
19805;DHT22;10062;51.052;13.756;2024-03-22T04:08:08;9.40;1.00
19805;DHT22;10062;51.052;13.756;2024-03-22T04:10:41;9.30;1.00
19805;DHT22;10062;51.052;13.756;2024-03-22T04:13:12;9.40;1.00
19805;DHT22;10062;51.052;13.756;2024-03-22T04:15:43;9.30;1.00
19805;DHT22;10062;51.052;13.756;2024-03-22T04:18:14;9.30;1.00
19805;DHT22;10062;51.052;13.756;2024-03-22T04:20:53;9.10;1.00
19805;DHT22;10062;51.052;13.756;2024-03-22T04:23:24;9.30;1.00
19805;DHT22;10062;51.052;13.756;2024-03-22T04:25:58;9.40;1.00
19805;DHT22;10062;51.052;13.756;2024-03-22T04:28:30;9.30;1.00
19805;DHT22;10062;51.052;13.756;2024-03-22T04:31:02;9.30;1.00
19805;DHT22;10062;51.052;13.756;2024-03-22T04:33:33;9.30;1.00
19805;DHT22;10062;51.052;13.756;2024-03-22T04:36:06;9.20;1.00
19805;DHT22;10062;51.052;13.756;2024-03-22T04:38:37;9.30;1.00
19805;DHT22;10062;51.052;13.756;2024-03-22T04:41:10;9.30;1.00
19805;DHT22;10062;51.052;13.756;2024-03-22T04:43:42;9.30;1.00
19805;DHT22;10062;51.052;13.756;2024-03-22T04:46:14;9.30;1.00
19805;DHT22;10062;51.052;13.756;2024-03-22T04:48:45;9.20;1.00
19805;DHT22;10062;51.052;13.756;2024-03-22T04:51:16;9.10;1.00
19805;DHT22;10062;51.052;13.756;2024-03-22T04:53:47;9.10;1.00
19805;DHT22;10062;51.052;13.756;2024-03-22T04:56:20;9.10;1.00
19805;DHT22;10062;51.052;13.756;2024-03-22T04:58:50;9.10;1.00
19805;DHT22;10062;51.052;13.756;2024-03-22T05:01:22;9.10;1.00
19805;DHT22;10062;51.052;13.756;2024-03-22T05:03:54;9.10;1.00
19805;DHT22;10062;51.052;13.756;2024-03-22T05:06:26;9.10;1.00
19805;DHT22;10062;51.052;13.756;2024-03-22T05:08:56;9.20;1.00
19805;DHT22;10062;51.052;13.756;2024-03-22T05:11:29;9.10;1.00
19805;DHT22;10062;51.052;13.756;2024-03-22T05:14:01;9.00;1.00
19805;DHT22;10062;51.052;13.756;2024-03-22T05:16:33;9.00;1.00
19805;DHT22;10062;51.052;13.756;2024-03-22T05:19:04;9.10;1.00
19805;DHT22;10062;51.052;13.756;2024-03-22T05:21:35;9.10;1.00
19805;DHT22;10062;51.052;13.756;2024-03-22T05:24:06;9.20;1.00
19805;DHT22;10062;51.052;13.756;2024-03-22T05:26:39;9.20;1.00
19805;DHT22;10062;51.052;13.756;2024-03-22T05:29:10;9.10;1.00
19805;DHT22;10062;51.052;13.756;2024-03-22T05:31:46;9.10;1.00
19805;DHT22;10062;51.052;13.756;2024-03-22T05:34:17;9.20;1.00
19805;DHT22;10062;51.052;13.756;2024-03-22T05:36:49;9.20;1.00
19805;DHT22;10062;51.052;13.756;2024-03-22T05:39:20;9.30;1.00
19805;DHT22;10062;51.052;13.756;2024-03-22T05:41:53;9.50;1.00
19805;DHT22;10062;51.052;13.756;2024-03-22T05:44:24;9.20;1.00
19805;DHT22;10062;51.052;13.756;2024-03-22T05:46:56;9.20;1.00
19805;DHT22;10062;51.052;13.756;2024-03-22T05:49:27;9.30;1.00
19805;DHT22;10062;51.052;13.756;2024-03-22T05:51:58;9.20;1.00
19805;DHT22;10062;51.052;13.756;2024-03-22T05:54:29;9.20;1.00
19805;DHT22;10062;51.052;13.756;2024-03-22T05:57:02;9.20;1.00
19805;DHT22;10062;51.052;13.756;2024-03-22T05:59:33;9.30;1.00
19805;DHT22;10062;51.052;13.756;2024-03-22T06:02:05;9.50;1.00
19805;DHT22;10062;51.052;13.756;2024-03-22T06:04:36;9.50;1.00
19805;DHT22;10062;51.052;13.756;2024-03-22T06:07:07;9.60;1.00
19805;DHT22;10062;51.052;13.756;2024-03-22T06:09:38;9.70;1.00
19805;DHT22;10062;51.052;13.756;2024-03-22T06:12:17;9.60;1.00
19805;DHT22;10062;51.052;13.756;2024-03-22T06:14:48;9.60;1.00
19805;DHT22;10062;51.052;13.756;2024-03-22T06:17:21;9.70;1.00
19805;DHT22;10062;51.052;13.756;2024-03-22T06:19:51;9.80;1.00
19805;DHT22;10062;51.052;13.756;2024-03-22T06:22:23;9.90;1.00
19805;DHT22;10062;51.052;13.756;2024-03-22T06:24:54;9.70;99.90
19805;DHT22;10062;51.052;13.756;2024-03-22T06:27:27;9.80;1.00
19805;DHT22;10062;51.052;13.756;2024-03-22T06:29:57;9.80;99.90
19805;DHT22;10062;51.052;13.756;2024-03-22T06:32:29;9.90;1.00
19805;DHT22;10062;51.052;13.756;2024-03-22T06:35:00;10.00;1.00
19805;DHT22;10062;51.052;13.756;2024-03-22T06:37:31;10.30;99.90
19805;DHT22;10062;51.052;13.756;2024-03-22T06:40:02;10.40;99.90
19805;DHT22;10062;51.052;13.756;2024-03-22T06:42:36;10.60;1.00
19805;DHT22;10062;51.052;13.756;2024-03-22T06:45:08;11.00;99.90
19805;DHT22;10062;51.052;13.756;2024-03-22T06:47:39;10.80;1.00
19805;DHT22;10062;51.052;13.756;2024-03-22T06:50:11;10.90;1.00
19805;DHT22;10062;51.052;13.756;2024-03-22T06:52:42;10.90;1.00
19805;DHT22;10062;51.052;13.756;2024-03-22T06:55:13;11.20;1.00
19805;DHT22;10062;51.052;13.756;2024-03-22T06:57:47;11.30;99.90
19805;DHT22;10062;51.052;13.756;2024-03-22T07:00:18;11.60;1.00
19805;DHT22;10062;51.052;13.756;2024-03-22T07:02:50;11.50;1.00
19805;DHT22;10062;51.052;13.756;2024-03-22T07:05:21;11.60;13.10
19805;DHT22;10062;51.052;13.756;2024-03-22T07:07:52;11.80;1.00
19805;DHT22;10062;51.052;13.756;2024-03-22T07:10:26;12.00;99.90
19805;DHT22;10062;51.052;13.756;2024-03-22T07:13:00;12.00;1.00
19805;DHT22;10062;51.052;13.756;2024-03-22T07:15:31;12.00;1.00
19805;DHT22;10062;51.052;13.756;2024-03-22T07:18:04;11.80;1.00
19805;DHT22;10062;51.052;13.756;2024-03-22T07:20:35;11.70;1.00
19805;DHT22;10062;51.052;13.756;2024-03-22T07:23:06;11.70;1.00
19805;DHT22;10062;51.052;13.756;2024-03-22T07:25:37;11.90;1.00
19805;DHT22;10062;51.052;13.756;2024-03-22T07:28:10;11.90;1.00
19805;DHT22;10062;51.052;13.756;2024-03-22T07:30:41;12.20;67.50
19805;DHT22;10062;51.052;13.756;2024-03-22T07:33:13;12.20;1.00
19805;DHT22;10062;51.052;13.756;2024-03-22T07:35:46;12.30;42.10
19805;DHT22;10062;51.052;13.756;2024-03-22T07:38:18;12.10;99.90
19805;DHT22;10062;51.052;13.756;2024-03-22T07:40:49;12.00;1.00
19805;DHT22;10062;51.052;13.756;2024-03-22T07:43:22;12.30;99.90
19805;DHT22;10062;51.052;13.756;2024-03-22T07:45:53;12.40;99.90
19805;DHT22;10062;51.052;13.756;2024-03-22T07:48:24;12.60;1.00
19805;DHT22;10062;51.052;13.756;2024-03-22T07:50:58;12.80;1.00
19805;DHT22;10062;51.052;13.756;2024-03-22T07:53:30;13.00;1.00
19805;DHT22;10062;51.052;13.756;2024-03-22T07:56:01;13.10;99.90
19805;DHT22;10062;51.052;13.756;2024-03-22T07:58:34;13.20;99.90
19805;DHT22;10062;51.052;13.756;2024-03-22T08:01:04;13.30;93.40
19805;DHT22;10062;51.052;13.756;2024-03-22T08:03:36;13.30;1.00
19805;DHT22;10062;51.052;13.756;2024-03-22T08:06:07;13.40;1.00
19805;DHT22;10062;51.052;13.756;2024-03-22T08:08:38;13.40;1.00
19805;DHT22;10062;51.052;13.756;2024-03-22T08:11:10;13.40;1.00
19805;DHT22;10062;51.052;13.756;2024-03-22T08:13:43;13.40;78.10
19805;DHT22;10062;51.052;13.756;2024-03-22T08:16:14;13.70;48.20
19805;DHT22;10062;51.052;13.756;2024-03-22T08:18:45;13.80;1.00
19805;DHT22;10062;51.052;13.756;2024-03-22T08:21:17;13.70;1.00
19805;DHT22;10062;51.052;13.756;2024-03-22T08:23:47;13.90;1.00
19805;DHT22;10062;51.052;13.756;2024-03-22T08:26:19;13.70;1.00
19805;DHT22;10062;51.052;13.756;2024-03-22T08:28:51;15.70;1.00
19805;DHT22;10062;51.052;13.756;2024-03-22T08:31:23;13.80;1.00
19805;DHT22;10062;51.052;13.756;2024-03-22T08:33:56;14.00;1.00
19805;DHT22;10062;51.052;13.756;2024-03-22T08:36:27;14.20;1.00
19805;DHT22;10062;51.052;13.756;2024-03-22T08:38:59;14.70;1.00
19805;DHT22;10062;51.052;13.756;2024-03-22T08:41:31;15.60;1.00
19805;DHT22;10062;51.052;13.756;2024-03-22T08:44:03;15.60;99.90
19805;DHT22;10062;51.052;13.756;2024-03-22T08:46:35;15.00;18.70
19805;DHT22;10062;51.052;13.756;2024-03-22T08:49:06;14.60;1.00
19805;DHT22;10062;51.052;13.756;2024-03-22T08:51:38;14.70;31.80
19805;DHT22;10062;51.052;13.756;2024-03-22T08:54:08;16.80;1.00
19805;DHT22;10062;51.052;13.756;2024-03-22T08:56:40;14.20;99.90
19805;DHT22;10062;51.052;13.756;2024-03-22T08:59:12;14.30;67.80
19805;DHT22;10062;51.052;13.756;2024-03-22T09:01:44;14.30;3.00
19805;DHT22;10062;51.052;13.756;2024-03-22T09:04:15;14.40;1.00
19805;DHT22;10062;51.052;13.756;2024-03-22T09:06:46;15.10;99.90
19805;DHT22;10062;51.052;13.756;2024-03-22T09:09:17;15.70;1.00
19805;DHT22;10062;51.052;13.756;2024-03-22T09:11:51;15.40;1.00
19805;DHT22;10062;51.052;13.756;2024-03-22T09:14:24;15.50;1.00
19805;DHT22;10062;51.052;13.756;2024-03-22T09:16:56;16.20;1.00
19805;DHT22;10062;51.052;13.756;2024-03-22T09:19:27;17.30;1.00
19805;DHT22;10062;51.052;13.756;2024-03-22T09:21:58;19.40;99.90
19805;DHT22;10062;51.052;13.756;2024-03-22T09:24:29;21.90;1.00
19805;DHT22;10062;51.052;13.756;2024-03-22T09:27:01;24.80;1.00
19805;DHT22;10062;51.052;13.756;2024-03-22T09:29:36;26.30;1.00
19805;DHT22;10062;51.052;13.756;2024-03-22T09:32:07;25.10;1.00
19805;DHT22;10062;51.052;13.756;2024-03-22T09:34:38;24.70;1.00
19805;DHT22;10062;51.052;13.756;2024-03-22T09:37:10;24.30;1.00
19805;DHT22;10062;51.052;13.756;2024-03-22T09:39:41;24.40;1.00
19805;DHT22;10062;51.052;13.756;2024-03-22T09:42:16;23.90;1.00
19805;DHT22;10062;51.052;13.756;2024-03-22T09:44:49;23.90;1.00
19805;DHT22;10062;51.052;13.756;2024-03-22T09:47:21;21.90;1.00
19805;DHT22;10062;51.052;13.756;2024-03-22T09:49:52;22.70;1.00
19805;DHT22;10062;51.052;13.756;2024-03-22T09:52:24;21.70;1.00
19805;DHT22;10062;51.052;13.756;2024-03-22T09:54:55;22.50;1.00
19805;DHT22;10062;51.052;13.756;2024-03-22T09:57:27;21.70;1.00
19805;DHT22;10062;51.052;13.756;2024-03-22T09:59:59;23.20;1.00
19805;DHT22;10062;51.052;13.756;2024-03-22T10:02:31;25.90;1.00
19805;DHT22;10062;51.052;13.756;2024-03-22T10:05:03;28.50;1.00
19805;DHT22;10062;51.052;13.756;2024-03-22T10:07:35;30.30;1.00
19805;DHT22;10062;51.052;13.756;2024-03-22T10:10:06;31.90;1.00
19805;DHT22;10062;51.052;13.756;2024-03-22T10:12:39;33.00;1.00
19805;DHT22;10062;51.052;13.756;2024-03-22T10:15:11;31.30;1.00
19805;DHT22;10062;51.052;13.756;2024-03-22T10:17:43;28.90;1.00
19805;DHT22;10062;51.052;13.756;2024-03-22T10:20:14;28.30;1.00
19805;DHT22;10062;51.052;13.756;2024-03-22T10:22:48;27.60;1.00
19805;DHT22;10062;51.052;13.756;2024-03-22T10:25:20;26.90;1.00
19805;DHT22;10062;51.052;13.756;2024-03-22T10:27:51;23.00;1.00
19805;DHT22;10062;51.052;13.756;2024-03-22T10:30:24;22.10;1.00
19805;DHT22;10062;51.052;13.756;2024-03-22T10:32:55;21.90;1.00
19805;DHT22;10062;51.052;13.756;2024-03-22T10:35:28;23.50;1.00
19805;DHT22;10062;51.052;13.756;2024-03-22T10:38:01;26.90;1.00
19805;DHT22;10062;51.052;13.756;2024-03-22T10:40:35;28.50;1.00
19805;DHT22;10062;51.052;13.756;2024-03-22T10:43:06;27.80;1.00
19805;DHT22;10062;51.052;13.756;2024-03-22T10:45:40;24.90;1.00
19805;DHT22;10062;51.052;13.756;2024-03-22T10:48:11;25.80;1.00
19805;DHT22;10062;51.052;13.756;2024-03-22T10:50:43;28.50;1.00
19805;DHT22;10062;51.052;13.756;2024-03-22T10:53:16;27.80;1.00
19805;DHT22;10062;51.052;13.756;2024-03-22T10:55:51;26.30;1.00
19805;DHT22;10062;51.052;13.756;2024-03-22T10:58:24;24.80;1.00
19805;DHT22;10062;51.052;13.756;2024-03-22T11:00:57;24.60;1.00
19805;DHT22;10062;51.052;13.756;2024-03-22T11:03:29;23.10;1.00
19805;DHT22;10062;51.052;13.756;2024-03-22T11:06:07;23.10;1.00
19805;DHT22;10062;51.052;13.756;2024-03-22T11:08:37;23.50;1.00
19805;DHT22;10062;51.052;13.756;2024-03-22T11:11:10;23.50;1.00
19805;DHT22;10062;51.052;13.756;2024-03-22T11:13:41;23.00;1.00
19805;DHT22;10062;51.052;13.756;2024-03-22T11:16:15;22.00;1.00
19805;DHT22;10062;51.052;13.756;2024-03-22T11:18:45;20.90;1.00
19805;DHT22;10062;51.052;13.756;2024-03-22T11:21:18;20.20;1.00
19805;DHT22;10062;51.052;13.756;2024-03-22T11:23:49;20.30;1.00
19805;DHT22;10062;51.052;13.756;2024-03-22T11:26:21;20.00;1.00
19805;DHT22;10062;51.052;13.756;2024-03-22T11:28:51;19.70;1.00
19805;DHT22;10062;51.052;13.756;2024-03-22T11:31:24;19.50;1.00
19805;DHT22;10062;51.052;13.756;2024-03-22T11:33:57;19.40;1.00
19805;DHT22;10062;51.052;13.756;2024-03-22T11:36:29;19.00;1.00
19805;DHT22;10062;51.052;13.756;2024-03-22T11:39:00;18.90;1.00
19805;DHT22;10062;51.052;13.756;2024-03-22T11:41:34;18.40;1.00
19805;DHT22;10062;51.052;13.756;2024-03-22T11:44:05;18.20;1.00
19805;DHT22;10062;51.052;13.756;2024-03-22T11:46:38;18.10;1.00
19805;DHT22;10062;51.052;13.756;2024-03-22T11:49:09;18.20;1.00
19805;DHT22;10062;51.052;13.756;2024-03-22T11:51:41;18.20;1.00
19805;DHT22;10062;51.052;13.756;2024-03-22T11:54:12;18.10;1.00
19805;DHT22;10062;51.052;13.756;2024-03-22T11:56:44;18.30;1.00
19805;DHT22;10062;51.052;13.756;2024-03-22T11:59:19;18.30;1.00
19805;DHT22;10062;51.052;13.756;2024-03-22T12:01:52;18.30;1.00
19805;DHT22;10062;51.052;13.756;2024-03-22T12:04:23;18.10;1.00
19805;DHT22;10062;51.052;13.756;2024-03-22T12:06:56;17.80;1.00
19805;DHT22;10062;51.052;13.756;2024-03-22T12:09:28;17.80;1.00
19805;DHT22;10062;51.052;13.756;2024-03-22T12:11:59;17.90;1.00
19805;DHT22;10062;51.052;13.756;2024-03-22T12:14:30;17.90;1.00
19805;DHT22;10062;51.052;13.756;2024-03-22T12:17:03;18.10;1.00
19805;DHT22;10062;51.052;13.756;2024-03-22T12:19:34;18.30;1.00
19805;DHT22;10062;51.052;13.756;2024-03-22T12:22:06;18.30;1.00
19805;DHT22;10062;51.052;13.756;2024-03-22T12:24:37;18.30;1.00
19805;DHT22;10062;51.052;13.756;2024-03-22T12:27:09;18.50;1.00
19805;DHT22;10062;51.052;13.756;2024-03-22T12:29:40;18.10;1.00
19805;DHT22;10062;51.052;13.756;2024-03-22T12:32:12;18.00;1.00
19805;DHT22;10062;51.052;13.756;2024-03-22T12:34:43;18.30;1.00
19805;DHT22;10062;51.052;13.756;2024-03-22T12:37:15;18.50;1.00
19805;DHT22;10062;51.052;13.756;2024-03-22T12:39:46;18.60;1.00
19805;DHT22;10062;51.052;13.756;2024-03-22T12:42:18;18.40;1.00
19805;DHT22;10062;51.052;13.756;2024-03-22T12:44:48;18.30;1.00
19805;DHT22;10062;51.052;13.756;2024-03-22T12:47:21;18.50;1.00
19805;DHT22;10062;51.052;13.756;2024-03-22T12:49:52;18.10;1.00
19805;DHT22;10062;51.052;13.756;2024-03-22T12:52:24;18.10;1.00
19805;DHT22;10062;51.052;13.756;2024-03-22T12:54:54;18.30;1.00
19805;DHT22;10062;51.052;13.756;2024-03-22T12:57:26;18.50;1.00
19805;DHT22;10062;51.052;13.756;2024-03-22T12:59:57;18.40;1.00
19805;DHT22;10062;51.052;13.756;2024-03-22T13:02:30;18.10;1.00
19805;DHT22;10062;51.052;13.756;2024-03-22T13:05:03;17.90;1.00
19805;DHT22;10062;51.052;13.756;2024-03-22T13:07:35;18.20;1.00
19805;DHT22;10062;51.052;13.756;2024-03-22T13:10:07;18.00;1.00
19805;DHT22;10062;51.052;13.756;2024-03-22T13:12:39;18.10;1.00
19805;DHT22;10062;51.052;13.756;2024-03-22T13:15:09;18.10;1.00
19805;DHT22;10062;51.052;13.756;2024-03-22T13:17:43;18.00;1.00
19805;DHT22;10062;51.052;13.756;2024-03-22T13:20:13;18.00;1.00
19805;DHT22;10062;51.052;13.756;2024-03-22T13:22:45;17.70;1.00
19805;DHT22;10062;51.052;13.756;2024-03-22T13:25:16;17.60;1.00
19805;DHT22;10062;51.052;13.756;2024-03-22T13:27:49;17.70;1.00
19805;DHT22;10062;51.052;13.756;2024-03-22T13:30:19;17.50;1.00
19805;DHT22;10062;51.052;13.756;2024-03-22T13:32:53;17.50;1.00
19805;DHT22;10062;51.052;13.756;2024-03-22T13:35:24;17.60;1.00
19805;DHT22;10062;51.052;13.756;2024-03-22T13:37:56;17.50;1.00
19805;DHT22;10062;51.052;13.756;2024-03-22T13:40:26;17.50;1.00
19805;DHT22;10062;51.052;13.756;2024-03-22T13:42:58;17.50;1.00
19805;DHT22;10062;51.052;13.756;2024-03-22T13:45:29;17.60;1.00
19805;DHT22;10062;51.052;13.756;2024-03-22T13:48:10;17.60;1.00
19805;DHT22;10062;51.052;13.756;2024-03-22T13:50:41;17.60;1.00
19805;DHT22;10062;51.052;13.756;2024-03-22T13:53:12;17.60;1.00
19805;DHT22;10062;51.052;13.756;2024-03-22T13:55:45;17.70;1.00
19805;DHT22;10062;51.052;13.756;2024-03-22T13:58:17;17.70;1.00
19805;DHT22;10062;51.052;13.756;2024-03-22T14:00:48;17.80;1.00
19805;DHT22;10062;51.052;13.756;2024-03-22T14:03:21;17.80;1.00
19805;DHT22;10062;51.052;13.756;2024-03-22T14:05:52;17.60;1.00
19805;DHT22;10062;51.052;13.756;2024-03-22T14:08:23;17.40;1.00
19805;DHT22;10062;51.052;13.756;2024-03-22T14:10:54;17.30;1.00
19805;DHT22;10062;51.052;13.756;2024-03-22T14:13:26;17.30;1.00
19805;DHT22;10062;51.052;13.756;2024-03-22T14:15:58;17.30;1.00
19805;DHT22;10062;51.052;13.756;2024-03-22T14:18:33;17.20;1.00
19805;DHT22;10062;51.052;13.756;2024-03-22T14:21:05;17.30;1.00
19805;DHT22;10062;51.052;13.756;2024-03-22T14:23:38;17.40;1.00
19805;DHT22;10062;51.052;13.756;2024-03-22T14:26:08;17.30;1.00
19805;DHT22;10062;51.052;13.756;2024-03-22T14:28:40;17.40;1.00
19805;DHT22;10062;51.052;13.756;2024-03-22T14:31:11;17.40;1.00
19805;DHT22;10062;51.052;13.756;2024-03-22T14:33:44;17.50;1.00
19805;DHT22;10062;51.052;13.756;2024-03-22T14:36:15;17.50;1.00
19805;DHT22;10062;51.052;13.756;2024-03-22T14:38:47;17.60;1.00
19805;DHT22;10062;51.052;13.756;2024-03-22T14:41:18;17.60;1.00
19805;DHT22;10062;51.052;13.756;2024-03-22T14:43:49;17.60;1.00
19805;DHT22;10062;51.052;13.756;2024-03-22T14:46:21;17.70;1.00
19805;DHT22;10062;51.052;13.756;2024-03-22T14:48:56;17.50;1.00
19805;DHT22;10062;51.052;13.756;2024-03-22T14:51:27;17.40;1.00
19805;DHT22;10062;51.052;13.756;2024-03-22T14:53:59;17.40;1.00
19805;DHT22;10062;51.052;13.756;2024-03-22T14:56:30;17.50;1.00
19805;DHT22;10062;51.052;13.756;2024-03-22T14:59:02;17.40;1.00
19805;DHT22;10062;51.052;13.756;2024-03-22T15:01:33;17.40;1.00
19805;DHT22;10062;51.052;13.756;2024-03-22T15:04:06;17.10;1.00
19805;DHT22;10062;51.052;13.756;2024-03-22T15:06:38;17.10;1.00
19805;DHT22;10062;51.052;13.756;2024-03-22T15:09:10;17.00;1.00
19805;DHT22;10062;51.052;13.756;2024-03-22T15:11:41;17.10;1.00
19805;DHT22;10062;51.052;13.756;2024-03-22T15:14:13;17.10;1.00
19805;DHT22;10062;51.052;13.756;2024-03-22T15:16:44;17.00;1.00
19805;DHT22;10062;51.052;13.756;2024-03-22T15:19:17;17.00;1.00
19805;DHT22;10062;51.052;13.756;2024-03-22T15:21:48;17.00;1.00
19805;DHT22;10062;51.052;13.756;2024-03-22T15:24:20;17.10;1.00
19805;DHT22;10062;51.052;13.756;2024-03-22T15:26:50;17.20;1.00
19805;DHT22;10062;51.052;13.756;2024-03-22T15:29:22;17.10;1.00
19805;DHT22;10062;51.052;13.756;2024-03-22T15:31:53;16.90;1.00
19805;DHT22;10062;51.052;13.756;2024-03-22T15:34:26;17.10;1.00
19805;DHT22;10062;51.052;13.756;2024-03-22T15:36:56;16.80;1.00
19805;DHT22;10062;51.052;13.756;2024-03-22T15:39:28;16.90;3.00
19805;DHT22;10062;51.052;13.756;2024-03-22T15:41:59;16.80;24.70
19805;DHT22;10062;51.052;13.756;2024-03-22T15:44:30;16.70;74.30
19805;DHT22;10062;51.052;13.756;2024-03-22T15:47:01;16.60;91.70
19805;DHT22;10062;51.052;13.756;2024-03-22T15:49:34;16.50;99.90
19805;DHT22;10062;51.052;13.756;2024-03-22T15:52:05;16.40;99.90
19805;DHT22;10062;51.052;13.756;2024-03-22T15:54:37;16.50;99.90
19805;DHT22;10062;51.052;13.756;2024-03-22T15:57:08;16.40;99.90
19805;DHT22;10062;51.052;13.756;2024-03-22T15:59:40;16.30;99.90
19805;DHT22;10062;51.052;13.756;2024-03-22T16:02:10;16.30;99.90